Time;durP1;ratioP1;P1;durP2;ratioP2;P2;SDS_P1;SDS_P2;PMS_P1;PMS_P2;Temp;Humidity;BMP_temperature;BMP_pressure;BME280_temperature;BME280_humidity;BME280_pressure;Samples;Min_cycle;Max_cycle;Signal;HPM_P1;HPM_P2
2022/12/31 00:01:57;;;;;;;6.60;6.00;;;;;;;11.80;96.86;100225.75;5029998;28;20029;-70
2022/12/31 00:04:22;;;;;;;5.55;4.28;;;;;;;11.80;97.11;100222.97;5029149;28;20468;-70
2022/12/31 00:06:48;;;;;;;3.55;3.25;;;;;;;11.81;97.22;100212.66;5029187;28;20040;-70
2022/12/31 00:09:16;;;;;;;3.40;3.10;;;;;;;11.84;97.16;100223.28;5025317;28;20500;-70
2022/12/31 00:11:41;;;;;;;3.60;3.17;;;;;;;11.83;97.50;100221.63;5013789;28;20045;-70
2022/12/31 00:14:07;;;;;;;3.40;2.90;;;;;;;11.84;97.01;100228.84;5025170;28;20025;-70
2022/12/31 00:16:38;;;;;;;3.60;2.83;;;;;;;11.84;97.49;100220.50;5033899;28;20065;-71
2022/12/31 00:19:05;;;;;;;4.18;2.58;;;;;;;11.83;97.28;100221.63;5031799;28;20071;-70
2022/12/31 00:21:33;;;;;;;3.83;3.53;;;;;;;11.86;97.29;100217.44;5033636;28;20029;-70
2022/12/31 00:24:00;;;;;;;2.88;2.53;;;;;;;11.85;97.17;100218.53;5034024;28;20366;-70
2022/12/31 00:26:27;;;;;;;5.28;3.40;;;;;;;11.86;97.65;100232.16;5027236;28;20030;-70
2022/12/31 00:28:54;;;;;;;3.30;3.00;;;;;;;11.88;97.62;100232.72;5014260;28;20080;-70
2022/12/31 00:31:25;;;;;;;3.47;2.25;;;;;;;11.87;97.73;100228.28;5027097;28;20034;-70
2022/12/31 00:34:02;;;;;;;2.20;2.00;;;;;;;11.90;97.81;100208.25;5032638;28;20029;-70
2022/12/31 00:36:31;;;;;;;2.40;2.00;;;;;;;11.90;97.71;100211.03;5033558;28;20030;-70
2022/12/31 00:38:58;;;;;;;3.63;2.28;;;;;;;11.87;97.69;100208.81;5033276;28;20037;-70
2022/12/31 00:41:27;;;;;;;3.95;2.40;;;;;;;11.89;97.79;100201.03;5033752;28;20432;-70
2022/12/31 00:43:54;;;;;;;4.30;2.90;;;;;;;11.89;98.33;100201.03;5021818;28;20091;-70
2022/12/31 00:46:20;;;;;;;2.40;2.20;;;;;;;11.91;98.25;100206.31;5013320;28;20458;-70
2022/12/31 00:48:47;;;;;;;3.17;2.00;;;;;;;11.90;97.81;100208.25;5030234;28;20095;-70
2022/12/31 00:51:17;;;;;;;2.10;1.88;;;;;;;11.90;98.01;100201.84;5033380;28;20373;-70
2022/12/31 00:53:43;;;;;;;1.92;1.73;;;;;;;11.90;98.21;100199.06;5032843;28;20025;-70
2022/12/31 00:56:28;;;;;;;1.73;1.60;;;;;;;11.90;98.04;100197.13;5033438;28;20057;-70
2022/12/31 00:58:53;;;;;;;2.38;1.48;;;;;;;11.90;97.79;100194.34;5029270;28;20099;-70
2022/12/31 01:01:30;;;;;;;2.85;1.40;;;;;;;11.89;97.61;100192.69;5020056;28;20029;-70
2022/12/31 01:04:10;;;;;;;1.63;1.50;;;;;;;11.90;97.67;100197.13;5032286;28;20486;-70
2022/12/31 01:06:36;;;;;;;1.70;1.60;;;;;;;11.91;97.84;100189.63;5033221;28;20068;-70
2022/12/31 01:09:03;;;;;;;1.67;1.30;;;;;;;11.91;97.71;100197.97;5032270;28;20056;-70
2022/12/31 01:11:28;;;;;;;2.22;2.00;;;;;;;11.92;97.61;100192.13;5032987;28;20040;-70
2022/12/31 01:14:01;;;;;;;1.85;1.60;;;;;;;11.92;97.92;100186.56;5033115;28;20025;-70
2022/12/31 01:16:34;;;;;;;1.95;1.27;;;;;;;11.93;97.82;100179.88;5026926;28;20048;-70
2022/12/31 01:19:02;;;;;;;2.70;1.23;;;;;;;11.91;97.88;100173.78;5012025;28;20026;-69
2022/12/31 01:21:28;;;;;;;2.08;1.40;;;;;;;11.91;97.82;100171.00;5018137;28;20038;-70
2022/12/31 01:23:53;;;;;;;1.55;1.17;;;;;;;11.90;97.58;100172.09;5032506;28;20048;-70
2022/12/31 01:26:19;;;;;;;0.90;0.90;;;;;;;11.90;97.55;100188.78;5032536;28;20037;-70
2022/12/31 01:28:48;;;;;;;3.70;1.10;;;;;;;11.90;97.31;100187.94;5032045;28;20033;-69
2022/12/31 01:31:16;;;;;;;1.38;0.95;;;;;;;11.89;97.01;100191.84;5031803;28;20112;-70
2022/12/31 01:33:42;;;;;;;1.33;0.90;;;;;;;11.88;97.28;100196.59;5030346;28;20035;-69
2022/12/31 01:36:16;;;;;;;2.40;1.10;;;;;;;11.89;96.82;100202.97;5031909;28;20057;-71
2022/12/31 01:38:42;;;;;;;1.55;0.85;;;;;;;11.88;96.81;100196.59;5032363;28;20021;-70
2022/12/31 01:41:17;;;;;;;1.10;1.00;;;;;;;11.88;97.43;100202.13;5032364;28;20029;-70
2022/12/31 01:44:00;;;;;;;1.05;0.70;;;;;;;11.88;97.14;100199.34;5030635;28;20070;-70
2022/12/31 01:46:36;;;;;;;0.70;0.70;;;;;;;11.87;97.27;100203.25;5032463;28;20052;-69
2022/12/31 01:49:39;;;;;;;0.70;0.70;;;;;;;11.87;96.81;100222.72;5032279;28;20125;-70
2022/12/31 01:52:13;;;;;;;1.50;0.88;;;;;;;11.87;96.89;100233.00;5009602;28;20152;-70
2022/12/31 01:54:43;;;;;;;1.15;0.80;;;;;;;11.88;97.23;100270.84;5012568;28;20026;-70
2022/12/31 01:57:10;;;;;;;2.00;0.60;;;;;;;11.85;97.36;100266.66;5030393;28;20029;-70
2022/12/31 01:59:39;;;;;;;0.90;0.75;;;;;;;11.85;97.52;100257.47;5027571;28;20029;-70
2022/12/31 02:02:05;;;;;;;1.55;0.77;;;;;;;11.86;97.66;100231.31;5032255;28;20080;-70
2022/12/31 02:04:30;;;;;;;1.13;0.70;;;;;;;11.86;97.48;100203.53;5026764;28;20025;-70
2022/12/31 02:07:02;;;;;;;1.00;0.63;;;;;;;11.86;97.19;100220.19;5016527;28;20061;-69
2022/12/31 02:09:33;;;;;;;1.13;0.80;;;;;;;11.87;97.51;100231.06;5013345;28;20037;-70
2022/12/31 02:11:59;;;;;;;0.70;0.70;;;;;;;11.87;96.88;100224.66;5018440;28;20484;-70
2022/12/31 02:14:29;;;;;;;0.80;0.80;;;;;;;11.87;97.07;100217.16;5030971;28;20326;-71
2022/12/31 02:17:16;;;;;;;0.93;0.80;;;;;;;11.90;97.41;100238.84;5028079;28;20037;-70
2022/12/31 02:20:01;;;;;;;0.80;0.80;;;;;;;11.88;96.86;100243.84;5031054;28;20029;-70
2022/12/31 02:23:00;;;;;;;1.73;1.00;;;;;;;11.91;97.27;100250.81;5029984;28;20041;-68
2022/12/31 02:25:43;;;;;;;1.23;0.95;;;;;;;11.91;97.01;100268.34;5030214;28;20400;-68
2022/12/31 02:28:18;;;;;;;0.90;0.90;;;;;;;11.91;96.88;100268.34;5030654;28;20033;-67
2022/12/31 02:30:49;;;;;;;0.90;0.90;;;;;;;11.90;96.85;100266.63;5031535;28;20111;-67
2022/12/31 02:33:35;;;;;;;2.75;1.83;;;;;;;11.91;96.84;100268.34;5016801;28;20029;-67
2022/12/31 02:36:07;;;;;;;2.20;2.00;;;;;;;11.92;96.42;100269.16;5027907;28;20049;-68
2022/12/31 02:38:37;;;;;;;2.10;1.80;;;;;;;11.93;96.47;100266.09;5031565;28;20496;-67
2022/12/31 02:41:48;;;;;;;1.77;1.67;;;;;;;11.93;96.63;100270.81;5025205;28;20052;-69
2022/12/31 02:43:57;;;;;;;1.80;1.70;;;;;;;11.93;96.65;100277.22;5022287;28;20489;-68
2022/12/31 02:46:41;;;;;;;1.60;1.50;;;;;;;11.94;96.87;100292.78;5017356;28;20025;-69
2022/12/31 02:49:17;;;;;;;2.00;1.88;;;;;;;11.94;96.87;100289.19;5023894;28;20037;-69
2022/12/31 02:51:50;;;;;;;1.90;1.80;;;;;;;11.92;96.62;100264.44;5028514;28;20129;-69
2022/12/31 02:54:28;;;;;;;1.98;1.88;;;;;;;11.92;96.56;100269.16;5043453;28;20033;-68
2022/12/31 02:57:14;;;;;;;2.00;1.90;;;;;;;11.92;96.58;100249.69;5033941;28;20033;-68
2022/12/31 03:02:29;;;;;;;3.00;2.25;;;;;;;11.93;96.76;100262.47;5031210;28;20036;-70
2022/12/31 03:04:56;;;;;;;2.33;2.13;;;;;;;11.93;96.81;100262.47;5017994;28;20025;-69
2022/12/31 03:07:26;;;;;;;2.20;2.10;;;;;;;11.94;96.87;100255.81;5030454;28;20075;-68
2022/12/31 03:09:53;;;;;;;2.10;1.98;;;;;;;11.93;96.57;100252.19;5018249;28;20033;-69
2022/12/31 03:15:18;;;;;;;1.80;1.70;;;;;;;11.92;96.48;100247.75;5028990;28;20138;-69
2022/12/31 03:18:04;;;;;;;1.52;1.42;;;;;;;11.92;96.38;100244.13;5032429;28;20083;-69
2022/12/31 03:23:24;;;;;;;1.70;1.60;;;;;;;11.91;96.00;100246.09;5031660;28;20504;-69
2022/12/31 03:25:53;;;;;;;1.67;1.58;;;;;;;11.92;96.18;100222.72;5026463;28;22977;-69
2022/12/31 03:28:22;;;;;;;5.57;1.67;;;;;;;11.91;96.29;100232.19;5011918;28;20037;-69
2022/12/31 03:30:53;;;;;;;1.10;1.10;;;;;;;11.92;96.14;100221.88;5027646;28;20029;-69
2022/12/31 03:33:20;;;;;;;1.30;1.20;;;;;;;11.92;96.47;100227.44;5031881;28;20037;-70
2022/12/31 03:35:46;;;;;;;1.30;1.20;;;;;;;11.92;96.10;100219.09;5026370;28;20026;-68
2022/12/31 03:38:13;;;;;;;1.23;1.20;;;;;;;11.91;96.08;100218.28;5013073;28;20026;-69
2022/12/31 03:40:42;;;;;;;1.55;1.45;;;;;;;11.91;96.34;100211.88;5029733;28;20500;-69
2022/12/31 03:43:07;;;;;;;1.40;1.30;;;;;;;11.91;96.65;100217.44;5030975;28;20022;-69
2022/12/31 03:45:35;;;;;;;1.30;1.30;;;;;;;11.90;96.14;100199.06;5029056;28;20036;-68
2022/12/31 03:48:02;;;;;;;2.83;1.40;;;;;;;11.89;96.38;100211.31;5031229;28;20057;-69
2022/12/31 03:50:29;;;;;;;1.75;1.30;;;;;;;11.89;96.33;100201.03;5028059;28;20068;-69
2022/12/31 03:52:54;;;;;;;1.20;1.20;;;;;;;11.90;96.24;100194.34;5031505;28;20025;-69
2022/12/31 03:55:19;;;;;;;1.10;1.10;;;;;;;11.91;96.63;100203.53;5029750;28;20029;-69
2022/12/31 03:57:45;;;;;;;1.23;1.23;;;;;;;11.88;96.44;100196.59;5030606;28;20026;-69
2022/12/31 04:00:19;;;;;;;1.10;1.08;;;;;;;11.89;96.83;100194.63;5031891;28;20026;-69
2022/12/31 04:02:48;;;;;;;0.80;0.80;;;;;;;11.88;96.50;100195.75;5030925;28;20079;-69
2022/12/31 04:05:15;;;;;;;1.27;1.00;;;;;;;11.89;96.68;100206.59;5014659;28;20038;-69
2022/12/31 04:07:40;;;;;;;1.10;1.00;;;;;;;11.89;96.86;100200.19;5011938;28;20026;-70
2022/12/31 04:10:08;;;;;;;1.33;1.23;;;;;;;11.90;96.77;100199.06;5016903;28;20037;-69
2022/12/31 04:12:33;;;;;;;1.00;1.00;;;;;;;11.92;96.46;100197.69;5031279;28;20761;-68
2022/12/31 04:14:59;;;;;;;3.35;1.20;;;;;;;11.93;96.70;100188.22;5030839;28;20052;-70
2022/12/31 04:17:28;;;;;;;1.52;0.80;;;;;;;11.93;96.87;100191.00;5030585;28;20033;-69
2022/12/31 04:19:53;;;;;;;2.83;0.82;;;;;;;11.95;97.14;100188.78;5030590;28;20095;-69
2022/12/31 04:22:21;;;;;;;0.93;0.77;;;;;;;11.98;96.95;100184.59;5017270;28;20417;-70
2022/12/31 04:24:47;;;;;;;1.23;0.70;;;;;;;12.01;97.13;100170.97;5018550;28;20037;-69
2022/12/31 04:27:12;;;;;;;1.25;0.77;;;;;;;12.03;97.52;100193.81;5030524;28;20396;-70
2022/12/31 04:29:38;;;;;;;3.33;1.05;;;;;;;12.09;98.12;100185.44;5029438;28;20029;-70
2022/12/31 04:32:05;;;;;;;2.55;1.00;;;;;;;12.15;98.82;100181.56;5029373;28;20029;-68
2022/12/31 04:34:31;;;;;;;1.23;0.85;;;;;;;12.17;98.95;100170.97;5030450;28;20034;-69
2022/12/31 04:36:56;;;;;;;2.15;1.00;;;;;;;12.19;98.61;100168.75;5030476;28;20078;-69
2022/12/31 04:39:23;;;;;;;2.78;1.00;;;;;;;12.24;98.81;100152.03;5014428;28;20462;-69
2022/12/31 04:41:48;;;;;;;1.88;0.95;;;;;;;12.31;99.31;100141.44;5010125;28;20030;-70
2022/12/31 04:44:14;;;;;;;1.95;0.90;;;;;;;12.35;99.34;100175.13;5010346;28;20033;-70
2022/12/31 04:46:39;;;;;;;3.63;1.10;;;;;;;12.40;99.20;100192.63;5024738;28;20041;-69
2022/12/31 04:49:04;;;;;;;4.90;1.10;;;;;;;12.44;99.05;100193.72;5029851;28;20033;-69
2022/12/31 04:51:30;;;;;;;3.88;1.27;;;;;;;12.48;99.29;100172.56;5029580;28;20506;-69
2022/12/31 04:53:56;;;;;;;4.25;1.10;;;;;;;12.50;99.21;100189.84;5028165;28;20026;-69
2022/12/31 04:56:22;;;;;;;4.95;1.20;;;;;;;12.51;99.12;100183.16;5032292;28;20755;-69
2022/12/31 04:58:48;;;;;;;3.15;1.17;;;;;;;12.56;98.77;100199.00;5033365;28;20025;-69
2022/12/31 05:01:16;;;;;;;4.72;1.00;;;;;;;12.58;98.96;100199.56;5032801;28;20041;-69
2022/12/31 05:03:41;;;;;;;2.47;1.00;;;;;;;12.61;98.18;100204.53;5032244;28;20586;-70
2022/12/31 05:06:20;;;;;;;3.88;1.08;;;;;;;12.63;98.10;100210.66;5033415;28;20037;-69
2022/12/31 05:08:45;;;;;;;4.90;1.00;;;;;;;12.67;98.13;100209.00;5033238;28;20044;-70
2022/12/31 05:11:11;;;;;;;3.90;1.02;;;;;;;12.72;98.18;100216.50;5031167;28;20037;-69
2022/12/31 05:13:38;;;;;;;3.15;0.80;;;;;;;12.74;97.59;100217.88;5032653;28;20389;-69
2022/12/31 05:16:04;;;;;;;2.63;1.00;;;;;;;12.76;97.34;100207.28;5033049;28;20068;-70
2022/12/31 05:18:30;;;;;;;2.67;0.90;;;;;;;12.78;97.19;100212.59;5032234;28;20065;-70
2022/12/31 05:20:56;;;;;;;4.35;0.95;;;;;;;12.83;97.19;100215.34;5032158;28;20038;-69
2022/12/31 05:23:21;;;;;;;2.63;0.85;;;;;;;12.87;96.94;100222.00;5032982;28;20018;-69
2022/12/31 05:25:47;;;;;;;2.10;0.73;;;;;;;12.89;96.76;100217.00;5032884;28;20029;-69
2022/12/31 05:28:14;;;;;;;2.42;0.80;;;;;;;12.96;96.71;100234.22;5029316;28;20087;-69
2022/12/31 05:30:39;;;;;;;3.53;0.98;;;;;;;12.94;96.34;100230.06;5032842;28;20033;-70
2022/12/31 05:33:04;;;;;;;2.33;0.68;;;;;;;12.97;96.81;100255.41;5031765;28;20030;-69
2022/12/31 05:35:30;;;;;;;2.22;0.77;;;;;;;12.96;96.48;100244.53;5032231;28;20063;-69
2022/12/31 05:37:55;;;;;;;1.75;0.77;;;;;;;12.99;97.33;100243.97;5032614;28;20108;-70
2022/12/31 05:40:23;;;;;;;1.40;0.90;;;;;;;12.99;97.29;100230.88;5032457;28;20071;-69
2022/12/31 05:42:49;;;;;;;2.03;0.75;;;;;;;12.97;96.66;100243.44;5029256;28;20547;-69
2022/12/31 05:45:14;;;;;;;2.13;0.73;;;;;;;12.99;97.17;100255.13;5031684;28;20030;-69
2022/12/31 05:47:40;;;;;;;1.70;0.60;;;;;;;13.01;97.14;100256.53;5032232;28;20037;-70
2022/12/31 05:50:08;;;;;;;1.67;0.70;;;;;;;13.02;97.04;100247.03;5027780;28;20056;-69
2022/12/31 05:52:33;;;;;;;2.83;0.68;;;;;;;13.04;96.71;100241.16;5024702;28;20046;-70
2022/12/31 05:54:58;;;;;;;1.90;0.80;;;;;;;13.08;96.72;100247.00;5026386;28;20923;-69
2022/12/31 05:57:24;;;;;;;2.92;0.80;;;;;;;13.08;96.23;100239.47;5031183;28;20021;-69
2022/12/31 05:59:52;;;;;;;3.65;0.68;;;;;;;13.08;95.71;100235.84;5032090;28;20448;-68
2022/12/31 06:02:17;;;;;;;2.70;0.70;;;;;;;13.11;95.41;100221.38;5025548;28;20124;-66
2022/12/31 06:04:42;;;;;;;3.47;0.75;;;;;;;13.15;94.41;100239.19;5027581;28;20120;-72
2022/12/31 06:07:13;;;;;;;1.13;0.60;;;;;;;13.16;94.53;100238.88;5027231;28;20117;-70
2022/12/31 06:09:38;;;;;;;2.65;0.82;;;;;;;13.19;94.06;100249.47;5030912;28;20103;-73
2022/12/31 06:12:04;;;;;;;2.78;0.75;;;;;;;13.26;93.26;100249.19;5031827;28;20037;-73
2022/12/31 06:14:30;;;;;;;2.03;0.80;;;;;;;13.29;92.67;100245.00;5031996;28;20029;-71
2022/12/31 06:16:55;;;;;;;2.35;0.70;;;;;;;13.31;92.88;100260.31;5023492;28;20381;-69
2022/12/31 06:19:20;;;;;;;2.78;0.80;;;;;;;13.37;92.11;100275.91;5024521;28;20037;-72
2022/12/31 06:21:46;;;;;;;0.75;0.60;;;;;;;13.39;91.35;100264.47;5027891;28;20622;-74
2022/12/31 06:24:11;;;;;;;1.13;0.77;;;;;;;13.41;91.15;100271.44;5030177;28;20129;-72
2022/12/31 06:26:40;;;;;;;1.58;0.70;;;;;;;13.41;91.21;100277.00;5026066;28;20018;-73
2022/12/31 06:29:05;;;;;;;2.67;0.90;;;;;;;13.43;90.29;100263.59;5026991;28;20037;-72
2022/12/31 06:31:30;;;;;;;1.73;0.77;;;;;;;13.47;89.92;100284.19;5020730;28;20047;-75
2022/12/31 06:33:56;;;;;;;1.90;0.52;;;;;;;13.50;89.99;100272.47;5030211;28;20033;-73
2022/12/31 06:36:21;;;;;;;2.90;0.70;;;;;;;13.53;89.83;100278.63;5028458;28;20017;-70
2022/12/31 06:38:49;;;;;;;2.28;0.60;;;;;;;13.58;89.46;100259.06;5029002;28;20034;-69
2022/12/31 06:41:18;;;;;;;2.05;0.85;;;;;;;13.57;89.24;100285.28;5028242;28;20029;-68
2022/12/31 06:43:44;;;;;;;3.83;0.73;;;;;;;13.61;89.07;100267.69;5012698;28;20468;-70
2022/12/31 06:46:12;;;;;;;1.42;0.70;;;;;;;13.65;88.47;100287.47;5030103;28;20551;-70
2022/12/31 06:48:38;;;;;;;1.50;0.52;;;;;;;13.68;88.07;100278.53;5029279;28;20091;-70
2022/12/31 06:51:07;;;;;;;1.73;0.73;;;;;;;13.72;87.75;100268.47;5026934;28;20111;-68
2022/12/31 06:53:33;;;;;;;1.70;0.70;;;;;;;13.73;87.61;100281.28;5029098;28;20044;-74
2022/12/31 06:56:06;;;;;;;2.58;0.90;;;;;;;13.77;87.55;100270.41;5028618;28;20067;-71
2022/12/31 06:58:35;;;;;;;2.70;0.80;;;;;;;13.74;87.54;100300.50;5029853;28;20033;-71
2022/12/31 07:01:27;;;;;;;3.65;0.80;;;;;;;13.75;87.71;100279.91;5030111;28;20041;-70
2022/12/31 07:04:10;;;;;;;1.45;0.65;;;;;;;13.73;87.56;100272.94;5017493;28;20049;-70
2022/12/31 07:06:54;;;;;;;3.63;0.73;;;;;;;13.80;87.32;100265.06;5017653;28;20034;-70
2022/12/31 07:09:39;;;;;;;2.80;1.25;;;;;;;13.84;86.83;100266.16;5010802;28;20540;-70
2022/12/31 07:12:36;;;;;;;4.40;1.13;;;;;;;13.84;87.48;100282.91;5011076;28;20034;-71
2022/12/31 07:15:10;;;;;;;3.88;0.85;;;;;;;13.83;86.97;100284.00;5010481;28;20018;-71
2022/12/31 07:17:57;;;;;;;2.63;0.77;;;;;;;13.89;86.87;100282.03;5009835;28;20030;-70
2022/12/31 07:20:26;;;;;;;1.20;0.63;;;;;;;13.89;86.79;100284.81;5027276;28;20060;-70
2022/12/31 07:23:00;;;;;;;2.63;0.90;;;;;;;13.92;86.59;100281.47;5029158;28;20033;-71
2022/12/31 07:25:26;;;;;;;1.92;0.70;;;;;;;13.89;86.65;100293.19;5027154;28;20030;-70
2022/12/31 07:28:14;;;;;;;4.05;1.02;;;;;;;13.89;86.36;100291.22;5029971;28;20056;-70
2022/12/31 07:31:14;;;;;;;2.83;0.82;;;;;;;13.91;86.76;100291.78;5007761;28;20073;-70
2022/12/31 07:33:46;;;;;;;4.03;1.02;;;;;;;13.90;86.39;100280.91;5030462;28;20373;-71
2022/12/31 07:36:18;;;;;;;4.47;1.13;;;;;;;13.92;86.48;100301.81;5028646;28;20112;-70
2022/12/31 07:39:01;;;;;;;24.02;2.45;;;;;;;13.90;86.59;100300.44;5030251;28;20813;-70
2022/12/31 07:41:41;;;;;;;2.03;0.93;;;;;;;13.90;86.78;100292.06;5021703;28;20033;-70
2022/12/31 07:44:25;;;;;;;3.28;1.02;;;;;;;13.94;86.66;100305.13;5010701;28;20030;-70
2022/12/31 07:46:50;;;;;;;3.25;0.85;;;;;;;13.95;86.50;100295.66;5010727;28;20029;-70
2022/12/31 07:49:16;;;;;;;2.92;0.82;;;;;;;13.97;86.22;100296.19;5009894;28;20034;-70
2022/12/31 07:51:43;;;;;;;2.17;1.00;;;;;;;13.98;87.01;100308.19;5010441;28;20120;-70
2022/12/31 07:54:08;;;;;;;4.05;1.10;;;;;;;13.95;87.21;100305.97;5010296;28;20482;-70
2022/12/31 07:56:34;;;;;;;3.78;1.00;;;;;;;13.92;87.37;100306.56;5027593;28;20092;-70
2022/12/31 07:59:36;;;;;;;4.18;1.00;;;;;;;13.90;87.36;100295.69;5012029;28;20033;-71
2022/12/31 08:02:20;;;;;;;5.35;1.17;;;;;;;13.90;87.65;100303.22;5014170;28;20043;-70
2022/12/31 08:05:04;;;;;;;4.57;0.85;;;;;;;13.89;87.49;100302.38;5011258;28;20038;-70
2022/12/31 08:07:48;;;;;;;12.60;1.50;;;;;;;13.86;87.90;100322.47;5010424;28;20026;-71
2022/12/31 08:10:16;;;;;;;3.70;1.20;;;;;;;13.87;87.89;100328.91;5013443;28;20038;-71
2022/12/31 08:12:42;;;;;;;3.67;0.85;;;;;;;13.86;88.61;100350.38;5019625;28;20053;-71
2022/12/31 08:15:15;;;;;;;4.63;1.05;;;;;;;13.83;88.94;100353.75;5020277;28;20038;-71
2022/12/31 08:17:42;;;;;;;2.88;0.77;;;;;;;13.81;89.35;100364.38;5019171;28;20033;-70
2022/12/31 08:20:15;;;;;;;2.83;0.90;;;;;;;13.79;89.30;100363.81;5017606;28;21807;-71
2022/12/31 08:22:52;;;;;;;2.85;0.95;;;;;;;13.78;89.28;100394.78;5009365;28;20030;-71
2022/12/31 08:25:48;;;;;;;3.70;0.88;;;;;;;13.77;89.34;100376.38;5020707;28;20392;-70
2022/12/31 08:28:37;;;;;;;2.50;0.90;;;;;;;13.78;89.12;100390.03;5030833;28;20079;-71
2022/12/31 08:31:30;;;;;;;6.13;1.13;;;;;;;13.78;88.97;100403.97;5025259;28;20025;-70
2022/12/31 08:34:07;;;;;;;3.15;0.90;;;;;;;13.79;88.79;100414.00;5023428;28;20481;-70
2022/12/31 08:36:46;;;;;;;4.47;1.10;;;;;;;13.79;88.22;100425.16;5020759;28;20072;-70
2022/12/31 08:39:17;;;;;;;1.67;0.90;;;;;;;13.82;87.83;100420.97;5032876;28;20030;-70
2022/12/31 08:41:48;;;;;;;3.13;1.00;;;;;;;13.82;88.00;100430.19;5032906;28;20035;-71
2022/12/31 08:44:39;;;;;;;10.90;1.70;;;;;;;13.85;88.37;100426.84;5032147;28;20107;-70
2022/12/31 08:47:09;;;;;;;3.72;0.98;;;;;;;13.83;88.35;100440.22;5020707;28;20052;-69
2022/12/31 08:49:35;;;;;;;5.15;1.20;;;;;;;13.82;88.44;100458.09;5014469;28;20485;-70
2022/12/31 08:52:02;;;;;;;5.78;1.35;;;;;;;13.84;88.10;100439.13;5030872;28;20057;-70
2022/12/31 08:54:31;;;;;;;3.65;1.40;;;;;;;13.84;88.21;100446.66;5033872;28;20022;-70
2022/12/31 08:57:29;;;;;;;3.42;1.00;;;;;;;13.84;88.11;100455.03;5033441;28;20109;-70
2022/12/31 09:00:02;;;;;;;4.43;1.20;;;;;;;13.86;87.34;100464.75;5032936;28;20388;-69
2022/12/31 09:02:47;;;;;;;3.78;1.05;;;;;;;13.87;87.47;100472.03;5033061;28;20043;-70
2022/12/31 09:05:25;;;;;;;3.70;0.90;;;;;;;13.88;87.63;100484.84;5024576;28;20481;-70
2022/12/31 09:08:02;;;;;;;6.05;1.10;;;;;;;13.89;87.84;100486.53;5029371;28;20457;-70
2022/12/31 09:11:05;;;;;;;2.33;1.02;;;;;;;13.89;88.06;100492.09;5032960;28;20416;-70
2022/12/31 09:13:54;;;;;;;4.38;1.10;;;;;;;13.89;88.37;100500.47;5032055;28;20025;-70
2022/12/31 09:16:44;;;;;;;2.67;0.90;;;;;;;13.88;88.23;100512.75;5032951;28;20480;-70
2022/12/31 09:19:09;;;;;;;3.00;1.20;;;;;;;13.86;88.74;100514.16;5031079;28;20072;-69
2022/12/31 09:21:36;;;;;;;5.50;1.27;;;;;;;13.85;89.53;100529.22;5030159;28;20473;-70
2022/12/31 09:24:03;;;;;;;3.63;1.35;;;;;;;13.82;89.58;100533.41;5030244;28;20140;-70
2022/12/31 09:26:39;;;;;;;3.50;1.23;;;;;;;13.79;90.62;100521.97;5031155;28;20053;-71
2022/12/31 09:29:12;;;;;;;4.20;1.20;;;;;;;13.78;90.70;100535.09;5031643;28;20048;-70
2022/12/31 09:31:47;;;;;;;4.10;1.40;;;;;;;13.77;90.66;100541.78;5032623;28;20120;-71
2022/12/31 09:34:46;;;;;;;2.55;1.10;;;;;;;13.77;90.93;100533.41;5029134;28;20068;-67
2022/12/31 09:37:19;;;;;;;5.70;1.20;;;;;;;13.74;91.04;100543.19;5032123;28;20034;-66
2022/12/31 09:39:46;;;;;;;7.28;3.58;;;;;;;13.74;91.18;100533.97;5029091;28;20037;-67
2022/12/31 09:42:12;;;;;;;4.20;1.77;;;;;;;13.73;90.90;100543.47;5015010;28;20393;-66
2022/12/31 09:45:05;;;;;;;4.22;1.35;;;;;;;13.74;91.09;100543.19;5031067;28;20042;-66
2022/12/31 09:47:36;;;;;;;4.75;1.33;;;;;;;13.72;90.63;100537.06;5030177;28;20448;-66
2022/12/31 09:50:40;;;;;;;6.53;1.70;;;;;;;13.74;90.66;100545.13;5028349;28;20064;-68
2022/12/31 09:53:28;;;;;;;4.68;2.20;;;;;;;13.77;90.73;100547.38;5024160;28;20338;-75
2022/12/31 09:56:22;;;;;;;5.57;1.40;;;;;;;13.76;89.99;100537.34;5029538;28;20048;-76
2022/12/31 09:59:20;;;;;;;16.35;2.75;;;;;;;13.80;89.88;100541.22;4994776;28;20549;-71
2022/12/31 10:02:10;;;;;;;14.13;2.08;;;;;;;13.81;89.59;100551.25;5031277;28;20402;-74
2022/12/31 10:05:12;;;;;;;6.65;1.70;;;;;;;13.83;89.12;100553.75;5032001;28;20040;-72
2022/12/31 10:08:02;;;;;;;3.40;1.25;;;;;;;13.86;89.10;100550.41;5031784;28;20033;-73
2022/12/31 10:10:37;;;;;;;7.28;2.00;;;;;;;13.86;88.56;100548.44;5031327;28;20079;-73
2022/12/31 10:13:19;;;;;;;4.57;1.40;;;;;;;13.89;88.65;100552.66;5026930;28;20548;-75
2022/12/31 10:16:18;;;;;;;14.02;2.20;;;;;;;13.90;88.73;100543.97;5019111;28;20030;-75
2022/12/31 10:19:05;;;;;;;7.07;1.38;;;;;;;13.93;88.22;100568.53;5027068;28;20045;-76
2022/12/31 10:22:01;;;;;;;12.38;2.20;;;;;;;13.96;88.99;100540.06;5021948;28;20056;-76
2022/12/31 10:25:13;;;;;;;8.82;1.60;;;;;;;13.99;88.86;100549.84;5010884;28;20072;-77
2022/12/31 10:27:59;;;;;;;5.90;1.55;;;;;;;13.99;88.66;100547.88;5011974;28;20481;-77
2022/12/31 10:30:32;;;;;;;8.13;2.42;;;;;;;14.01;88.59;100539.22;5022577;28;20071;-76
2022/12/31 10:33:03;;;;;;;12.00;2.17;;;;;;;14.02;88.49;100529.72;5030729;28;20044;-75
2022/12/31 10:35:45;;;;;;;7.22;1.95;;;;;;;14.02;88.54;100524.13;5031642;28;20025;-76
2022/12/31 10:38:44;;;;;;;9.25;1.83;;;;;;;14.04;88.53;100521.09;5030700;28;20155;-75
2022/12/31 10:41:12;;;;;;;10.15;1.60;;;;;;;14.03;88.08;100516.59;5029661;28;20044;-73
2022/12/31 10:43:46;;;;;;;5.32;1.75;;;;;;;14.08;87.34;100530.56;5030443;28;20479;-74
2022/12/31 10:46:49;;;;;;;4.82;1.40;;;;;;;14.11;87.29;100530.81;5028282;28;20038;-68
2022/12/31 10:49:25;;;;;;;;;;;;;;;14.15;87.71;100531.09;5027683;28;20064;-68
2022/12/31 10:52:09;;;;;;;8.15;2.97;;;;;;;14.16;86.18;100549.50;5028669;28;19966;-69
2022/12/31 10:54:56;;;;;;;6.22;1.75;;;;;;;14.17;86.36;100548.38;5028728;28;20025;-75
2022/12/31 10:57:41;;;;;;;4.72;2.97;;;;;;;14.19;85.47;100546.16;5028945;28;20033;-70
2022/12/31 11:00:10;;;;;;;10.15;1.90;;;;;;;14.20;85.33;100536.66;5025858;28;20029;-70
2022/12/31 11:02:50;;;;;;;4.88;1.50;;;;;;;14.23;85.58;100552.84;5029308;28;20057;-68
2022/12/31 11:05:53;;;;;;;5.63;1.60;;;;;;;14.27;85.07;100545.56;5022604;28;20111;-69
2022/12/31 11:08:40;;;;;;;6.25;1.33;;;;;;;14.30;84.38;100556.13;5011680;28;20060;-71
2022/12/31 11:11:08;;;;;;;11.00;2.15;;;;;;;14.30;83.96;100558.91;5016314;28;20051;-70
2022/12/31 11:14:03;;;;;;;5.13;1.90;;;;;;;14.33;83.86;100568.69;5027058;28;20439;-73
2022/12/31 11:16:52;;;;;;;13.70;1.98;;;;;;;14.37;83.87;100556.66;5022355;28;20117;-67
2022/12/31 11:19:34;;;;;;;6.05;1.38;;;;;;;14.38;83.32;100557.50;5023993;28;20748;-61
2022/12/31 11:22:17;;;;;;;7.40;1.63;;;;;;;14.39;82.87;100568.41;5027014;28;20034;-73
2022/12/31 11:25:10;;;;;;;7.30;2.05;;;;;;;14.41;83.33;100559.72;5030447;28;20037;-73
2022/12/31 11:28:04;;;;;;;6.97;1.73;;;;;;;14.42;82.96;100565.03;5018066;28;20029;-71
2022/12/31 11:30:54;;;;;;;7.20;1.83;;;;;;;14.44;83.02;100573.94;5030987;28;20036;-68
2022/12/31 11:33:30;;;;;;;7.05;1.90;;;;;;;14.45;82.40;100575.63;5011269;28;20796;-67
2022/12/31 11:36:11;;;;;;;19.52;3.50;;;;;;;14.46;82.08;100560.56;5027525;28;20056;-68
2022/12/31 11:38:42;;;;;;;6.93;1.67;;;;;;;14.45;81.65;100578.41;5028772;28;20017;-67
2022/12/31 11:41:37;;;;;;;8.60;2.72;;;;;;;14.45;82.38;100572.81;5025231;28;20080;-67
2022/12/31 11:44:33;;;;;;;4.50;1.90;;;;;;;14.46;82.39;100584.81;5026498;28;20515;-69
2022/12/31 11:47:04;;;;;;;6.35;1.70;;;;;;;14.47;81.57;100592.09;5021423;28;20477;-70
2022/12/31 11:50:02;;;;;;;10.35;1.70;;;;;;;14.45;82.05;100589.56;5027497;28;20029;-71
2022/12/31 11:52:48;;;;;;;5.50;1.38;;;;;;;14.45;82.02;100575.63;5018244;28;20077;-67
2022/12/31 11:55:47;;;;;;;5.68;1.70;;;;;;;14.45;82.86;100567.22;5017100;28;20029;-70
2022/12/31 11:58:19;;;;;;;8.20;1.90;;;;;;;14.43;82.78;100572.28;5028394;28;20234;-68
2022/12/31 12:00:59;;;;;;;6.80;1.63;;;;;;;14.43;82.74;100565.88;5027651;28;20087;-67
2022/12/31 12:03:25;;;;;;;6.00;1.92;;;;;;;14.42;82.86;100573.41;5019479;28;20061;-70
2022/12/31 12:05:51;;;;;;;4.72;1.55;;;;;;;14.42;82.59;100572.56;5018609;28;20064;-68